createdAt,value
2022-09-28T00:00:07.875Z,98303.58
2022-09-28T00:03:04.169Z,98301.06
2022-09-28T00:05:36.444Z,98298.85
2022-09-28T00:08:08.350Z,98295.70
2022-09-28T00:10:43.458Z,98297.21
2022-09-28T00:13:15.822Z,98295.64
2022-09-28T00:15:47.737Z,98294.49
2022-09-28T00:18:19.683Z,98291.27
2022-09-28T00:21:00.609Z,98292.92
2022-09-28T00:23:33.230Z,98291.21
2022-09-28T00:26:08.600Z,98286.17
2022-09-28T00:28:40.521Z,98288.94
2022-09-28T00:31:18.257Z,98282.04
2022-09-28T00:33:57.014Z,98285.20
2022-09-28T00:36:38.225Z,98287.61
2022-09-28T00:39:17.084Z,98285.54
2022-09-28T00:41:51.433Z,98283.08
2022-09-28T00:44:43.594Z,98282.94
2022-09-28T00:47:41.748Z,98281.77
2022-09-28T00:50:29.711Z,98278.02
2022-09-28T00:53:16.552Z,98281.77
2022-09-28T00:55:53.515Z,98283.66
2022-09-28T00:58:31.126Z,98282.23
2022-09-28T01:01:14.688Z,98281.46
2022-09-28T01:03:54.885Z,98278.70
2022-09-28T01:06:34.121Z,98271.53
2022-09-28T01:09:12.689Z,98266.88
2022-09-28T01:11:45.142Z,98258.83
2022-09-28T01:14:19.248Z,98262.73
2022-09-28T01:17:02.002Z,98257.27
2022-09-28T01:20:05.669Z,98258.56
2022-09-28T01:23:01.914Z,98260.37
2022-09-28T01:25:46.881Z,98257.83
2022-09-28T01:28:22.218Z,98256.48
2022-09-28T01:31:04.498Z,98259.38
2022-09-28T01:33:41.153Z,98253.21
2022-09-28T01:36:19.477Z,98254.86
2022-09-28T01:38:56.343Z,98254.97
2022-09-28T01:41:33.510Z,98254.00
2022-09-28T01:44:09.895Z,98253.27
2022-09-28T01:46:44.956Z,98250.88
2022-09-28T01:49:24.101Z,98250.86
2022-09-28T01:52:02.092Z,98250.70
2022-09-28T01:54:39.390Z,98250.36
2022-09-28T01:57:16.465Z,98250.60
2022-09-28T01:59:56.951Z,98248.38
2022-09-28T02:02:36.061Z,98247.60
2022-09-28T02:05:12.870Z,98247.80
2022-09-28T02:07:48.644Z,98247.08
2022-09-28T02:10:25.922Z,98249.95
2022-09-28T02:13:02.643Z,98251.95
2022-09-28T02:15:41.673Z,98252.62
2022-09-28T02:18:14.290Z,98256.40
2022-09-28T02:20:53.965Z,98253.67
2022-09-28T02:23:27.889Z,98256.53
2022-09-28T02:26:06.305Z,98256.79
2022-09-28T02:28:38.392Z,98253.28
2022-09-28T02:31:10.548Z,98254.39
2022-09-28T02:33:46.179Z,98254.40
2022-09-28T02:36:18.312Z,98252.84
2022-09-28T02:38:50.399Z,98247.73
2022-09-28T02:41:36.393Z,98246.00
2022-09-28T02:44:22.499Z,98242.63
2022-09-28T02:47:01.682Z,98241.10
2022-09-28T02:49:46.145Z,98238.73
2022-09-28T02:52:35.478Z,98230.27
2022-09-28T02:55:19.428Z,98228.57
2022-09-28T02:58:09.712Z,98221.56
2022-09-28T03:00:50.519Z,98219.45
2022-09-28T03:03:30.352Z,98218.24
2022-09-28T03:06:08.786Z,98215.02
2022-09-28T03:08:51.247Z,98217.61
2022-09-28T03:11:28.028Z,98216.31
2022-09-28T03:14:02.060Z,98217.59
2022-09-28T03:16:45.835Z,98216.63
2022-09-28T03:19:21.900Z,98221.21
2022-09-28T03:21:54.179Z,98221.19
2022-09-28T03:24:26.239Z,98222.64
2022-09-28T03:26:58.203Z,98225.54
2022-09-28T03:29:33.136Z,98223.92
2022-09-28T03:32:07.844Z,98225.30
2022-09-28T03:34:39.793Z,98231.27
2022-09-28T03:37:11.631Z,98230.48
2022-09-28T03:39:43.625Z,98228.58
2022-09-28T03:42:15.570Z,98223.99
2022-09-28T03:44:50.355Z,98223.73
2022-09-28T03:47:22.529Z,98220.73
2022-09-28T03:49:54.482Z,98219.31
2022-09-28T03:52:26.359Z,98219.30
2022-09-28T03:54:58.396Z,98218.84
2022-09-28T03:57:30.345Z,98214.86
2022-09-28T04:00:02.756Z,98214.23
2022-09-28T04:02:35.028Z,98213.04
2022-09-28T04:05:09.444Z,98213.48
2022-09-28T04:07:42.727Z,98214.09
2022-09-28T04:10:14.814Z,98215.79
2022-09-28T04:12:46.949Z,98220.15
2022-09-28T04:15:19.989Z,98217.85
2022-09-28T04:17:51.940Z,98220.08
2022-09-28T04:20:46.275Z,98224.27
2022-09-28T04:23:18.557Z,98228.27
2022-09-28T04:25:55.350Z,98230.52
2022-09-28T04:29:04.055Z,98235.29
2022-09-28T04:31:43.264Z,98233.36
2022-09-28T04:34:17.533Z,98231.98
2022-09-28T04:36:50.205Z,98234.19
2022-09-28T04:39:22.105Z,98229.96
2022-09-28T04:41:57.064Z,98225.59
2022-09-28T04:44:28.961Z,98230.45
2022-09-28T04:47:05.397Z,98228.85
2022-09-28T04:49:38.528Z,98231.02
2022-09-28T04:52:18.289Z,98233.15
2022-09-28T04:54:53.380Z,98230.85
2022-09-28T04:57:25.216Z,98231.86
2022-09-28T04:59:57.080Z,98236.73
2022-09-28T05:02:29.714Z,98233.70
2022-09-28T05:05:20.835Z,98231.95
2022-09-28T05:08:12.875Z,98232.64
2022-09-28T05:10:46.539Z,98233.08
2022-09-28T05:13:18.875Z,98231.44
2022-09-28T05:15:58.199Z,98233.88
2022-09-28T05:18:33.824Z,98232.30
2022-09-28T05:21:12.910Z,98235.27
2022-09-28T05:23:48.843Z,98233.08
2022-09-28T05:26:20.938Z,98231.78
2022-09-28T05:28:53.870Z,98234.08
2022-09-28T05:31:27.347Z,98235.54
2022-09-28T05:34:18.011Z,98234.80
2022-09-28T05:36:50.344Z,98233.83
2022-09-28T05:39:22.640Z,98234.06
2022-09-28T05:41:55.803Z,98236.86
2022-09-28T05:44:27.654Z,98236.43
2022-09-28T05:47:00.249Z,98237.91
2022-09-28T05:49:33.459Z,98241.05
2022-09-28T05:52:06.427Z,98242.11
2022-09-28T05:54:42.195Z,98243.23
2022-09-28T05:57:14.456Z,98242.39
2022-09-28T05:59:46.333Z,98241.27
2022-09-28T06:02:18.436Z,98243.77
2022-09-28T06:04:51.486Z,98242.46
2022-09-28T06:07:23.992Z,98243.89
2022-09-28T06:09:55.942Z,98241.61
2022-09-28T06:12:42.429Z,98242.64
2022-09-28T06:15:19.359Z,98238.58
2022-09-28T06:17:58.638Z,98240.20
2022-09-28T06:20:47.632Z,98241.17
2022-09-28T06:23:21.221Z,98237.29
2022-09-28T06:25:53.785Z,98238.27
2022-09-28T06:28:27.030Z,98239.05
2022-09-28T06:31:00.387Z,98244.65
2022-09-28T06:33:32.587Z,98249.45
2022-09-28T06:36:04.622Z,98245.79
2022-09-28T06:38:36.846Z,98239.64
2022-09-28T06:41:09.141Z,98243.30
2022-09-28T06:43:41.636Z,98244.68
2022-09-28T06:46:33.467Z,98246.57
2022-09-28T06:49:30.404Z,98248.14
2022-09-28T06:52:21.220Z,98241.53
2022-09-28T06:55:09.103Z,98240.42
2022-09-28T06:57:47.177Z,98240.54
2022-09-28T07:00:19.452Z,98249.66
2022-09-28T07:02:52.222Z,98247.38
2022-09-28T07:05:56.688Z,98250.70
2022-09-28T07:08:57.372Z,98251.80
2022-09-28T07:12:01.076Z,98257.11
2022-09-28T07:14:48.083Z,98259.38
2022-09-28T07:17:20.830Z,98262.31
2022-09-28T07:19:53.760Z,98263.27
2022-09-28T07:22:40.290Z,98265.10
2022-09-28T07:25:17.216Z,98267.19
2022-09-28T07:27:57.464Z,98268.28
2022-09-28T07:30:45.730Z,98268.66
2022-09-28T07:33:43.733Z,98268.20
2022-09-28T07:36:28.605Z,98259.09
2022-09-28T07:39:00.557Z,98258.58
2022-09-28T07:41:36.342Z,98259.09
2022-09-28T07:44:11.088Z,98255.98
2022-09-28T07:46:44.680Z,98260.42
2022-09-28T07:49:25.699Z,98260.00
2022-09-28T07:52:18.635Z,98261.55
2022-09-28T07:55:12.462Z,98266.77
2022-09-28T07:58:01.950Z,98270.40
2022-09-28T08:01:07.287Z,98270.11
2022-09-28T08:03:40.339Z,98267.04
2022-09-28T08:06:13.245Z,98269.65
2022-09-28T08:08:46.153Z,98268.66
2022-09-28T08:11:20.287Z,98269.20
2022-09-28T08:14:07.227Z,98269.22
2022-09-28T08:17:05.751Z,98268.25
2022-09-28T08:20:06.445Z,98269.36
2022-09-28T08:22:38.833Z,98270.75
2022-09-28T08:25:11.803Z,98271.08
2022-09-28T08:27:43.690Z,98270.98
2022-09-28T08:30:16.029Z,98272.52
2022-09-28T08:33:07.722Z,98277.72
2022-09-28T08:35:49.359Z,98282.67
2022-09-28T08:38:35.844Z,98285.18
2022-09-28T08:41:56.093Z,98281.88
2022-09-28T08:45:08.880Z,98286.17
2022-09-28T08:48:15.259Z,98289.80
2022-09-28T08:51:20.195Z,98290.00
2022-09-28T08:54:11.952Z,98293.44
2022-09-28T08:57:08.567Z,98292.52
2022-09-28T08:59:48.054Z,98291.14
2022-09-28T09:02:28.755Z,98296.55
2022-09-28T09:05:19.258Z,98293.04
2022-09-28T09:08:23.396Z,98289.13
2022-09-28T09:11:03.511Z,98292.08
2022-09-28T09:13:52.936Z,98291.62
2022-09-28T09:16:39.954Z,98298.67
2022-09-28T09:19:42.039Z,98300.38
2022-09-28T09:22:36.294Z,98301.56
2022-09-28T09:25:20.857Z,98304.15
2022-09-28T09:28:09.463Z,98308.52
2022-09-28T09:30:52.318Z,98309.36
2022-09-28T09:33:52.203Z,98312.65
2022-09-28T09:37:00.453Z,98315.96
2022-09-28T09:40:04.218Z,98315.83
2022-09-28T09:43:05.704Z,98313.33
2022-09-28T09:46:03.360Z,98312.98
2022-09-28T09:48:47.463Z,98315.31
2022-09-28T09:51:30.074Z,98314.83
2022-09-28T09:54:08.593Z,98321.30
2022-09-28T09:56:46.462Z,98320.23
2022-09-28T09:59:26.281Z,98319.63
2022-09-28T10:02:22.379Z,98323.29
2022-09-28T10:05:03.671Z,98322.00
2022-09-28T10:07:44.742Z,98323.52
2022-09-28T10:10:27.843Z,98327.95
2022-09-28T10:13:19.612Z,98328.16
2022-09-28T10:15:52.864Z,98333.60
2022-09-28T10:18:29.887Z,98336.76
2022-09-28T10:21:23.240Z,98335.98
2022-09-28T10:24:03.492Z,98337.51
2022-09-28T10:26:40.289Z,98338.09
2022-09-28T10:29:21.568Z,98343.38
2022-09-28T10:31:55.816Z,98349.13
2022-09-28T10:34:31.770Z,98350.14
2022-09-28T10:37:13.427Z,98348.64
2022-09-28T10:40:02.046Z,98357.23
2022-09-28T10:42:36.622Z,98355.30
2022-09-28T10:45:23.598Z,98355.64
2022-09-28T10:47:55.946Z,98356.77
2022-09-28T10:50:29.251Z,98352.35
2022-09-28T10:53:21.706Z,98352.16
2022-09-28T10:56:24.759Z,98350.44
2022-09-28T10:59:02.030Z,98344.91
2022-09-28T11:01:48.056Z,98350.15
2022-09-28T11:04:25.506Z,98347.63
2022-09-28T11:09:35.424Z,98340.88
2022-09-28T11:12:18.389Z,98338.89
2022-09-28T11:14:56.157Z,98334.83
2022-09-28T11:17:31.490Z,98330.59
2022-09-28T11:20:02.957Z,98330.73
2022-09-28T11:22:44.471Z,98332.75
2022-09-28T11:25:24.576Z,98333.41
2022-09-28T11:28:04.704Z,98338.47
2022-09-28T11:30:45.996Z,98344.27
2022-09-28T11:33:38.877Z,98335.53
2022-09-28T11:36:39.156Z,98338.64
2022-09-28T11:39:22.455Z,98332.27
2022-09-28T11:42:07.249Z,98334.31
2022-09-28T11:44:46.624Z,98331.64
2022-09-28T11:47:44.348Z,98333.33
2022-09-28T11:50:28.526Z,98332.98
2022-09-28T11:53:10.311Z,98336.66
2022-09-28T11:55:48.528Z,98342.05
2022-09-28T11:58:32.704Z,98338.03
2022-09-28T12:01:14.292Z,98333.96
2022-09-28T12:04:09.713Z,98336.23
2022-09-28T12:06:46.490Z,98336.14
2022-09-28T12:09:23.806Z,98336.23
2022-09-28T12:12:12.150Z,98340.03
2022-09-28T12:14:49.381Z,98340.10
2022-09-28T12:17:26.145Z,98346.09
2022-09-28T12:20:04.133Z,98344.52
2022-09-28T12:22:41.885Z,98343.52
2022-09-28T12:25:18.004Z,98346.59
2022-09-28T12:27:55.106Z,98345.75
2022-09-28T12:30:31.949Z,98350.89
2022-09-28T12:33:09.339Z,98347.31
2022-09-28T12:35:53.870Z,98345.52
2022-09-28T12:38:45.972Z,98351.27
2022-09-28T12:41:39.328Z,98355.19
2022-09-28T12:44:34.110Z,98355.34
2022-09-28T12:47:24.799Z,98355.27
2022-09-28T12:53:16.411Z,98353.94
2022-09-28T12:55:59.142Z,98356.34
2022-09-28T12:59:00.081Z,98353.25
2022-09-28T13:01:51.434Z,98356.71
2022-09-28T13:04:39.277Z,98350.20
2022-09-28T13:07:15.493Z,98349.52
2022-09-28T13:09:58.872Z,98347.06
2022-09-28T13:12:38.262Z,98346.06
2022-09-28T13:15:28.397Z,98342.50
2022-09-28T13:18:06.402Z,98336.71
2022-09-28T13:20:59.569Z,98332.91
2022-09-28T13:23:35.738Z,98325.64
2022-09-28T13:26:15.940Z,98318.69
2022-09-28T13:28:51.496Z,98319.16
2022-09-28T13:31:31.820Z,98322.11
2022-09-28T13:34:07.390Z,98324.52
2022-09-28T13:36:47.870Z,98331.89
2022-09-28T13:39:38.623Z,98325.95
2022-09-28T13:42:13.321Z,98324.77
2022-09-28T13:44:59.667Z,98325.48
2022-09-28T13:47:48.656Z,98329.87
2022-09-28T13:50:34.477Z,98335.81
2022-09-28T13:53:16.470Z,98337.55
2022-09-28T13:55:58.563Z,98336.27
2022-09-28T13:58:37.222Z,98336.78
2022-09-28T14:01:12.579Z,98337.41
2022-09-28T14:03:58.204Z,98334.42
2022-09-28T14:06:32.008Z,98336.10
2022-09-28T14:09:28.702Z,98331.36
2022-09-28T14:12:02.562Z,98329.23
2022-09-28T14:14:52.061Z,98333.02
2022-09-28T14:18:00.288Z,98332.27
2022-09-28T14:20:35.753Z,98336.09
2022-09-28T14:23:33.268Z,98336.96
2022-09-28T14:26:29.589Z,98337.95
2022-09-28T14:29:16.381Z,98339.31
2022-09-28T14:31:48.672Z,98335.72
2022-09-28T14:34:34.256Z,98342.36
2022-09-28T14:37:37.573Z,98340.59
2022-09-28T14:40:37.902Z,98346.11
2022-09-28T14:43:37.162Z,98348.03
2022-09-28T14:46:40.653Z,98349.17
2022-09-28T14:49:43.144Z,98345.91
2022-09-28T14:52:19.717Z,98351.85
2022-09-28T14:54:59.298Z,98350.45
2022-09-28T14:57:32.374Z,98352.41
2022-09-28T15:00:16.340Z,98352.53
2022-09-28T15:02:52.796Z,98352.40
2022-09-28T15:05:29.028Z,98354.26
2022-09-28T15:08:01.967Z,98353.45
2022-09-28T15:10:36.930Z,98351.52
2022-09-28T15:13:20.907Z,98350.33
2022-09-28T15:15:55.889Z,98350.46
2022-09-28T15:18:44.163Z,98346.92
2022-09-28T15:21:16.488Z,98349.55
2022-09-28T15:23:49.794Z,98351.92
2022-09-28T15:26:29.770Z,98358.15
2022-09-28T15:29:04.147Z,98355.77
2022-09-28T15:31:38.448Z,98353.40
2022-09-28T15:34:44.586Z,98351.11
2022-09-28T15:37:19.108Z,98353.66
2022-09-28T15:39:53.246Z,98355.25
2022-09-28T15:42:25.735Z,98360.36
2022-09-28T15:45:24.899Z,98361.52
2022-09-28T15:48:18.565Z,98362.55
2022-09-28T15:51:05.193Z,98369.27
2022-09-28T15:53:37.552Z,98370.11
2022-09-28T15:56:11.888Z,98364.84
2022-09-28T15:58:44.402Z,98364.10
2022-09-28T16:01:38.008Z,98363.45
2022-09-28T16:04:40.596Z,98365.52
2022-09-28T16:07:24.377Z,98366.91
2022-09-28T16:10:30.482Z,98363.21
2022-09-28T16:13:15.637Z,98362.85
2022-09-28T16:15:49.821Z,98364.71
2022-09-28T16:18:23.738Z,98369.81
2022-09-28T16:20:57.302Z,98366.39
2022-09-28T16:23:34.160Z,98368.23
2022-09-28T16:26:10.649Z,98371.30
2022-09-28T16:28:53.279Z,98368.04
2022-09-28T16:31:34.577Z,98364.79
2022-09-28T16:34:20.896Z,98366.63
2022-09-28T16:36:53.201Z,98368.98
2022-09-28T16:39:25.818Z,98373.20
2022-09-28T16:42:02.012Z,98378.45
2022-09-28T16:44:36.975Z,98379.72
2022-09-28T16:47:09.112Z,98372.34
2022-09-28T16:49:42.025Z,98369.83
2022-09-28T16:52:34.726Z,98364.48
2022-09-28T16:58:09.956Z,98354.95
2022-09-28T17:00:43.545Z,98350.77
2022-09-28T17:03:19.858Z,98348.11
2022-09-28T17:05:52.858Z,98349.36
2022-09-28T17:08:26.187Z,98344.31
2022-09-28T17:11:23.367Z,98340.51
2022-09-28T17:13:59.100Z,98339.31
2022-09-28T17:17:02.318Z,98341.99
2022-09-28T17:19:28.732Z,98343.95
2022-09-28T17:22:00.559Z,98349.02
2022-09-28T17:24:32.363Z,98355.20
2022-09-28T17:27:07.028Z,98357.52
2022-09-28T17:29:38.854Z,98356.83
2022-09-28T17:32:18.229Z,98355.34
2022-09-28T17:35:00.938Z,98361.38
2022-09-28T17:37:42.258Z,98362.58
2022-09-28T17:40:21.511Z,98362.92
2022-09-28T17:42:55.261Z,98370.69
2022-09-28T17:45:31.465Z,98377.02
2022-09-28T17:48:03.956Z,98373.52
2022-09-28T17:50:37.072Z,98374.71
2022-09-28T17:53:08.900Z,98371.14
2022-09-28T17:55:43.158Z,98371.29
2022-09-28T17:58:23.234Z,98366.77
2022-09-28T18:00:55.184Z,98365.30
2022-09-28T18:03:28.244Z,98362.39
2022-09-28T18:06:08.769Z,98361.48
2022-09-28T18:08:40.868Z,98362.90
2022-09-28T18:11:13.052Z,98362.40
2022-09-28T18:13:47.430Z,98358.77
2022-09-28T18:16:20.551Z,98348.66
2022-09-28T18:18:52.660Z,98342.34
2022-09-28T18:21:24.723Z,98354.19
2022-09-28T18:23:56.755Z,98367.16
2022-09-28T18:26:29.094Z,98376.30
2022-09-28T18:29:01.131Z,98374.10
2022-09-28T18:31:33.291Z,98371.79
2022-09-28T18:34:06.078Z,98372.70
2022-09-28T18:36:38.198Z,98360.83
2022-09-28T18:39:10.310Z,98357.96
2022-09-28T18:41:42.806Z,98354.98
2022-09-28T18:44:14.893Z,98352.08
2022-09-28T18:46:47.138Z,98348.23
2022-09-28T18:49:19.329Z,98349.55
2022-09-28T18:51:51.501Z,98352.70
2022-09-28T18:54:23.608Z,98358.06
2022-09-28T18:56:58.488Z,98363.40
2022-09-28T18:59:28.949Z,98368.03
2022-09-28T19:02:01.451Z,98369.11
2022-09-28T19:04:33.362Z,98371.70
2022-09-28T19:07:05.198Z,98374.89
2022-09-28T19:09:37.284Z,98375.20
2022-09-28T19:12:09.164Z,98371.09
2022-09-28T19:14:41.182Z,98371.86
2022-09-28T19:17:13.314Z,98372.30
2022-09-28T19:19:45.184Z,98374.17
2022-09-28T19:22:18.011Z,98374.61
2022-09-28T19:24:49.865Z,98377.23
2022-09-28T19:27:21.726Z,98379.68
2022-09-28T19:29:53.922Z,98380.41
2022-09-28T19:32:25.707Z,98379.52
2022-09-28T19:34:57.797Z,98378.38
2022-09-28T19:37:30.121Z,98382.38
2022-09-28T19:40:02.134Z,98379.88
2022-09-28T19:42:36.348Z,98379.01
2022-09-28T19:45:10.961Z,98384.80
2022-09-28T19:47:42.819Z,98387.29
2022-09-28T19:50:14.682Z,98385.38
2022-09-28T19:52:46.630Z,98383.96
2022-09-28T19:55:21.278Z,98380.17
2022-09-28T19:57:53.119Z,98379.32
2022-09-28T20:00:25.058Z,98378.90
2022-09-28T20:02:56.977Z,98374.31
2022-09-28T20:05:28.884Z,98373.95
2022-09-28T20:08:00.755Z,98376.90
2022-09-28T20:10:32.625Z,98375.48
2022-09-28T20:13:04.781Z,98373.15
2022-09-28T20:15:38.056Z,98378.19
2022-09-28T20:18:12.240Z,98377.52
2022-09-28T20:20:44.514Z,98374.36
2022-09-28T20:23:16.406Z,98378.75
2022-09-28T20:25:53.122Z,98374.92
2022-09-28T20:28:24.969Z,98376.44
2022-09-28T20:31:02.336Z,98383.58
2022-09-28T20:33:36.075Z,98386.13
2022-09-28T20:36:09.592Z,98389.98
2022-09-28T20:38:41.736Z,98392.13
2022-09-28T20:41:16.791Z,98393.25
2022-09-28T20:43:51.861Z,98389.72
2022-09-28T20:46:24.318Z,98391.54
2022-09-28T20:48:57.993Z,98390.05
2022-09-28T20:51:29.945Z,98388.39
2022-09-28T20:54:01.970Z,98392.09
2022-09-28T20:56:37.895Z,98392.21
2022-09-28T20:59:13.049Z,98389.69
2022-09-28T21:01:45.180Z,98389.80
2022-09-28T21:04:17.244Z,98390.88
2022-09-28T21:06:49.147Z,98388.56
2022-09-28T21:09:20.950Z,98390.59
2022-09-28T21:11:52.748Z,98389.17
2022-09-28T21:14:24.917Z,98391.46
2022-09-28T21:16:56.989Z,98395.62
2022-09-28T21:19:29.519Z,98396.28
2022-09-28T21:22:01.409Z,98400.83
2022-09-28T21:24:33.333Z,98400.05
2022-09-28T21:27:05.333Z,98403.25
2022-09-28T21:29:37.186Z,98406.27
2022-09-28T21:32:09.427Z,98405.73
2022-09-28T21:34:41.330Z,98406.89
2022-09-28T21:37:13.291Z,98403.94
2022-09-28T21:39:45.195Z,98405.09
2022-09-28T21:42:17.101Z,98406.05
2022-09-28T21:44:49.007Z,98402.31
2022-09-28T21:47:21.202Z,98403.55
2022-09-28T21:49:53.092Z,98403.88
2022-09-28T21:52:25.158Z,98404.50
2022-09-28T21:54:57.028Z,98403.61
2022-09-28T21:57:28.934Z,98404.77
2022-09-28T22:00:00.860Z,98403.13
2022-09-28T22:02:34.002Z,98401.74
2022-09-28T22:05:07.196Z,98396.92
2022-09-28T22:07:40.007Z,98394.50
2022-09-28T22:10:15.430Z,98393.45
2022-09-28T22:12:47.347Z,98393.20
2022-09-28T22:15:19.294Z,98393.35
2022-09-28T22:17:51.150Z,98399.80
2022-09-28T22:20:23.190Z,98401.66
2022-09-28T22:22:55.051Z,98402.38
2022-09-28T22:25:26.993Z,98404.55
2022-09-28T22:27:58.841Z,98409.14
2022-09-28T22:30:30.649Z,98413.02
2022-09-28T22:33:02.844Z,98412.42
2022-09-28T22:35:34.944Z,98412.83
2022-09-28T22:38:06.793Z,98416.29
2022-09-28T22:40:42.989Z,98418.42
2022-09-28T22:43:14.897Z,98419.33
2022-09-28T22:45:47.206Z,98419.63
2022-09-28T22:48:19.034Z,98425.48
2022-09-28T22:50:54.209Z,98425.85
2022-09-28T22:53:26.168Z,98429.73
2022-09-28T22:55:58.843Z,98428.25
2022-09-28T22:58:30.767Z,98435.04
2022-09-28T23:01:09.854Z,98435.33
2022-09-28T23:03:42.762Z,98436.89
2022-09-28T23:06:16.724Z,98440.83
2022-09-28T23:08:50.614Z,98443.69
2022-09-28T23:11:22.760Z,98439.76
2022-09-28T23:13:56.530Z,98440.99
2022-09-28T23:16:30.193Z,98439.51
2022-09-28T23:19:02.189Z,98438.25
2022-09-28T23:21:34.337Z,98438.79
2022-09-28T23:24:06.363Z,98444.98
2022-09-28T23:26:38.162Z,98448.11
2022-09-28T23:29:11.761Z,98449.65
2022-09-28T23:31:44.238Z,98454.86
2022-09-28T23:34:16.099Z,98456.77
2022-09-28T23:36:48.147Z,98455.52
2022-09-28T23:39:20.395Z,98455.41
2022-09-28T23:41:52.322Z,98458.27
2022-09-28T23:44:24.224Z,98455.27
2022-09-28T23:46:56.200Z,98461.20
2022-09-28T23:49:28.708Z,98457.10
2022-09-28T23:52:01.177Z,98457.61
2022-09-28T23:54:33.045Z,98448.35
2022-09-28T23:57:04.882Z,98451.64
2022-09-28T23:59:36.711Z,98454.73
